Time;durP1;ratioP1;P1;durP2;ratioP2;P2;SDS_P1;SDS_P2;PMS_P1;PMS_P2;Temp;Humidity;BMP_temperature;BMP_pressure;BME280_temperature;BME280_humidity;BME280_pressure;Samples;Min_cycle;Max_cycle;Signal;HPM_P1;HPM_P2
2023/09/28 00:00:35;;;;;;;18.63;12.15;;;;;;;;;;7390856;19;20460;-65
2023/09/28 00:03:01;;;;;;;18.00;11.75;;;;;;;;;;7360105;19;20472;-66
2023/09/28 00:05:27;;;;;;;20.70;11.45;;;;;;;;;;7367606;19;20006;-67
2023/09/28 00:07:55;;;;;;;18.88;12.82;;;;;;;;;;7369082;19;20047;-66
2023/09/28 00:10:20;;;;;;;19.75;13.35;;;;;;;;;;7367470;19;20014;-66
2023/09/28 00:12:48;;;;;;;21.40;14.48;;;;;;;;;;7367428;19;20195;-66
2023/09/28 00:15:14;;;;;;;18.95;12.25;;;;;;;;;;7389611;19;20007;-66
2023/09/28 00:17:40;;;;;;;18.30;12.25;;;;;;;;;;7367074;19;20007;-65
2023/09/28 00:20:17;;;;;;;17.02;12.27;;;;;;;;;;7365435;19;20006;-66
2023/09/28 00:22:43;;;;;;;17.13;12.48;;;;;;;;;;7364233;19;20032;-65
2023/09/28 00:25:11;;;;;;;16.60;11.02;;;;;;;;;;7365369;19;20006;-66
2023/09/28 00:27:43;;;;;;;16.52;11.00;;;;;;;;;;7367879;19;20010;-66
2023/09/28 00:30:12;;;;;;;15.55;10.30;;;;;;;;;;7388223;19;20005;-65
2023/09/28 00:32:37;;;;;;;15.35;10.98;;;;;;;;;;7365173;19;20014;-66
2023/09/28 00:35:07;;;;;;;14.80;10.38;;;;;;;;;;7368832;19;20006;-65
2023/09/28 00:37:32;;;;;;;16.67;10.88;;;;;;;;;;7366892;19;20110;-65
2023/09/28 00:40:09;;;;;;;18.30;11.95;;;;;;;;;;7368168;19;20050;-67
2023/09/28 00:42:34;;;;;;;16.17;10.77;;;;;;;;;;7366289;19;20010;-66
2023/09/28 00:45:00;;;;;;;17.13;10.60;;;;;;;;;;7390065;19;20010;-68
2023/09/28 00:47:25;;;;;;;15.10;10.48;;;;;;;;;;7381415;19;20453;-66
2023/09/28 00:49:52;;;;;;;17.85;10.95;;;;;;;;;;7372737;19;20009;-66
2023/09/28 00:52:17;;;;;;;18.42;11.43;;;;;;;;;;7365955;19;20083;-65
2023/09/28 00:54:46;;;;;;;20.40;12.60;;;;;;;;;;7368961;19;20010;-65
2023/09/28 00:57:12;;;;;;;20.13;12.48;;;;;;;;;;7391051;19;20006;-65
2023/09/28 00:59:37;;;;;;;18.65;11.48;;;;;;;;;;7369395;19;20007;-67
2023/09/28 01:02:02;;;;;;;16.58;11.65;;;;;;;;;;7365924;19;20012;-66
2023/09/28 01:04:28;;;;;;;18.40;11.77;;;;;;;;;;7366768;19;20041;-67
2023/09/28 01:06:54;;;;;;;16.85;11.27;;;;;;;;;;7366601;19;20002;-65
2023/09/28 01:09:21;;;;;;;15.88;10.93;;;;;;;;;;7390227;19;20008;-67
2023/09/28 01:11:47;;;;;;;18.40;11.75;;;;;;;;;;7376963;19;20034;-66
2023/09/28 01:14:12;;;;;;;18.70;11.40;;;;;;;;;;7395746;19;20007;-66
2023/09/28 01:16:38;;;;;;;20.05;11.85;;;;;;;;;;7400754;19;20010;-66
2023/09/28 01:19:05;;;;;;;16.83;11.77;;;;;;;;;;7381788;19;20014;-65
2023/09/28 01:21:31;;;;;;;18.80;11.60;;;;;;;;;;7384381;19;20736;-66
2023/09/28 01:23:57;;;;;;;19.58;12.30;;;;;;;;;;7400351;19;19994;-64
2023/09/28 01:26:22;;;;;;;20.52;12.70;;;;;;;;;;7378857;19;20048;-65
2023/09/28 01:28:48;;;;;;;18.63;13.18;;;;;;;;;;7380331;19;20044;-65
2023/09/28 01:31:13;;;;;;;18.83;13.48;;;;;;;;;;7379396;19;20006;-66
2023/09/28 01:33:38;;;;;;;19.58;13.45;;;;;;;;;;7378024;19;20003;-66
2023/09/28 01:36:04;;;;;;;22.58;14.43;;;;;;;;;;7401922;19;20003;-65
2023/09/28 01:38:48;;;;;;;23.45;14.05;;;;;;;;;;7379395;19;20473;-66
2023/09/28 01:41:14;;;;;;;21.38;13.60;;;;;;;;;;7379400;19;20090;-66
2023/09/28 01:43:40;;;;;;;21.08;13.80;;;;;;;;;;7379169;19;20031;-66
2023/09/28 01:46:05;;;;;;;21.80;14.52;;;;;;;;;;7379675;19;20010;-65
2023/09/28 01:48:30;;;;;;;24.08;15.75;;;;;;;;;;7390442;19;19994;-66
2023/09/28 01:50:56;;;;;;;22.75;15.55;;;;;;;;;;7395067;19;20006;-66
2023/09/28 01:53:21;;;;;;;23.38;14.90;;;;;;;;;;7378050;19;20006;-66
2023/09/28 01:55:47;;;;;;;23.25;15.40;;;;;;;;;;7379636;19;20022;-66
2023/09/28 01:58:13;;;;;;;22.92;14.85;;;;;;;;;;7380677;19;20014;-67
2023/09/28 02:00:38;;;;;;;25.08;14.82;;;;;;;;;;7379977;19;20015;-65
2023/09/28 02:03:05;;;;;;;23.42;15.32;;;;;;;;;;7399210;19;20006;-66
2023/09/28 02:05:32;;;;;;;23.98;15.43;;;;;;;;;;7380643;19;20082;-66
2023/09/28 02:07:58;;;;;;;25.40;17.15;;;;;;;;;;7379576;19;20010;-68
2023/09/28 02:10:23;;;;;;;27.33;17.00;;;;;;;;;;7378870;19;20038;-66
2023/09/28 02:12:50;;;;;;;26.67;15.32;;;;;;;;;;7377209;19;20068;-65
2023/09/28 02:15:16;;;;;;;20.58;14.32;;;;;;;;;;7400305;19;19999;-66
2023/09/28 02:17:42;;;;;;;22.20;14.32;;;;;;;;;;7378029;19;20021;-65
2023/09/28 02:20:09;;;;;;;18.40;13.52;;;;;;;;;;7380066;19;20085;-65
2023/09/28 02:22:45;;;;;;;22.77;15.13;;;;;;;;;;7375595;19;20014;-65
2023/09/28 02:25:18;;;;;;;21.27;15.40;;;;;;;;;;7370050;19;20006;-66
2023/09/28 02:27:45;;;;;;;23.13;15.63;;;;;;;;;;7368458;19;20114;-65
2023/09/28 02:30:12;;;;;;;24.90;15.30;;;;;;;;;;7396686;19;20002;-66
2023/09/28 02:32:39;;;;;;;20.95;14.20;;;;;;;;;;7368209;19;20090;-65
2023/09/28 02:35:07;;;;;;;22.10;14.88;;;;;;;;;;7371234;19;20007;-66
2023/09/28 02:37:33;;;;;;;21.35;14.80;;;;;;;;;;7371730;19;20007;-65
2023/09/28 02:39:59;;;;;;;22.88;14.82;;;;;;;;;;7370940;19;20007;-65
2023/09/28 02:42:24;;;;;;;30.85;14.85;;;;;;;;;;7390910;19;20085;-65
2023/09/28 02:44:49;;;;;;;24.67;16.27;;;;;;;;;;7372472;19;20021;-65
2023/09/28 02:47:15;;;;;;;25.15;16.63;;;;;;;;;;7371827;19;20014;-65
2023/09/28 02:49:40;;;;;;;22.38;14.80;;;;;;;;;;7371746;19;20351;-66
2023/09/28 02:52:06;;;;;;;24.00;14.73;;;;;;;;;;7369491;19;20019;-66
2023/09/28 02:54:31;;;;;;;23.25;15.45;;;;;;;;;;7374948;19;20114;-66
2023/09/28 02:56:57;;;;;;;30.25;17.05;;;;;;;;;;7393542;19;20472;-65
2023/09/28 02:59:23;;;;;;;24.48;15.73;;;;;;;;;;7370970;19;20010;-66
2023/09/28 03:01:52;;;;;;;22.85;14.93;;;;;;;;;;7370170;19;20034;-65
2023/09/28 03:04:17;;;;;;;21.70;14.20;;;;;;;;;;7370124;19;20025;-65
2023/09/28 03:06:44;;;;;;;22.50;13.88;;;;;;;;;;7370266;19;20438;-66
2023/09/28 03:09:11;;;;;;;20.35;13.77;;;;;;;;;;7391052;19;19999;-66
2023/09/28 03:11:36;;;;;;;21.33;13.95;;;;;;;;;;7368739;19;20011;-66
2023/09/28 03:14:02;;;;;;;22.85;13.15;;;;;;;;;;7371042;19;20038;-66
2023/09/28 03:16:27;;;;;;;18.50;13.27;;;;;;;;;;7370371;19;20002;-66
2023/09/28 03:18:53;;;;;;;21.60;13.93;;;;;;;;;;7370546;19;20094;-66
2023/09/28 03:21:18;;;;;;;21.15;13.30;;;;;;;;;;7392065;19;20433;-66
2023/09/28 03:23:45;;;;;;;21.85;14.02;;;;;;;;;;7367933;19;20003;-66
2023/09/28 03:26:11;;;;;;;22.60;14.48;;;;;;;;;;7369642;19;20711;-65
2023/09/28 03:28:37;;;;;;;20.90;13.73;;;;;;;;;;7368549;19;20014;-65
2023/09/28 03:31:02;;;;;;;23.75;13.93;;;;;;;;;;7369399;19;20007;-66
2023/09/28 03:33:27;;;;;;;23.02;13.27;;;;;;;;;;7390120;19;19998;-64
2023/09/28 03:35:53;;;;;;;20.63;13.45;;;;;;;;;;7369727;19;20006;-67
2023/09/28 03:38:18;;;;;;;22.77;14.55;;;;;;;;;;7366266;19;20014;-64
2023/09/28 03:40:43;;;;;;;25.58;14.07;;;;;;;;;;7375357;19;20015;-66
2023/09/28 03:43:09;;;;;;;23.00;14.43;;;;;;;;;;7370803;19;20459;-66
2023/09/28 03:45:34;;;;;;;21.02;14.27;;;;;;;;;;7370399;19;20009;-66
2023/09/28 03:48:00;;;;;;;20.67;14.48;;;;;;;;;;7392904;19;19999;-66
2023/09/28 03:50:25;;;;;;;23.50;14.32;;;;;;;;;;7368653;19;20161;-66
2023/09/28 03:52:51;;;;;;;19.55;14.48;;;;;;;;;;7368649;19;20007;-65
2023/09/28 03:55:18;;;;;;;19.63;13.70;;;;;;;;;;7368877;19;20093;-65
2023/09/28 03:57:44;;;;;;;21.17;13.82;;;;;;;;;;7368388;19;20055;-67
2023/09/28 04:00:14;;;;;;;20.42;14.10;;;;;;;;;;7386153;19;20003;-65
2023/09/28 04:02:50;;;;;;;21.13;13.73;;;;;;;;;;7366993;19;20527;-66
2023/09/28 04:05:15;;;;;;;19.48;13.27;;;;;;;;;;7365906;19;19998;-65
2023/09/28 04:07:41;;;;;;;23.25;13.95;;;;;;;;;;7368568;19;20018;-67
2023/09/28 04:10:08;;;;;;;26.70;15.35;;;;;;;;;;7368919;19;20078;-65
2023/09/28 04:12:34;;;;;;;22.35;15.27;;;;;;;;;;7367233;19;20002;-65
2023/09/28 04:14:59;;;;;;;26.88;15.13;;;;;;;;;;7389484;19;19994;-65
2023/09/28 04:17:25;;;;;;;22.15;15.35;;;;;;;;;;7368015;19;20117;-65
2023/09/28 04:19:50;;;;;;;24.63;15.27;;;;;;;;;;7368457;19;20006;-65
2023/09/28 04:22:16;;;;;;;20.42;13.73;;;;;;;;;;7366861;19;19998;-67
2023/09/28 04:24:41;;;;;;;21.10;13.43;;;;;;;;;;7368069;19;19998;-65
2023/09/28 04:27:08;;;;;;;23.15;14.35;;;;;;;;;;7390275;19;20003;-66
2023/09/28 04:29:33;;;;;;;22.90;14.85;;;;;;;;;;7368325;19;20009;-67
2023/09/28 04:31:59;;;;;;;21.58;15.52;;;;;;;;;;7366384;19;20014;-65
2023/09/28 04:34:24;;;;;;;27.42;16.00;;;;;;;;;;7370400;19;21060;-66
2023/09/28 04:36:50;;;;;;;27.92;16.38;;;;;;;;;;7372356;19;20103;-66
2023/09/28 04:39:17;;;;;;;26.02;16.92;;;;;;;;;;7388693;19;19998;-65
2023/09/28 04:41:43;;;;;;;26.85;15.82;;;;;;;;;;7364007;19;20007;-65
2023/09/28 04:44:09;;;;;;;23.20;15.70;;;;;;;;;;7365007;19;20275;-64
2023/09/28 04:46:34;;;;;;;23.70;15.60;;;;;;;;;;7363191;19;20088;-66
2023/09/28 04:49:00;;;;;;;25.40;15.82;;;;;;;;;;7363944;19;20109;-66
2023/09/28 04:51:25;;;;;;;26.73;17.77;;;;;;;;;;7386153;19;20009;-66
2023/09/28 04:53:51;;;;;;;26.00;16.63;;;;;;;;;;7365205;19;20006;-66
2023/09/28 04:56:16;;;;;;;25.70;16.90;;;;;;;;;;7367690;19;20010;-66
2023/09/28 04:58:42;;;;;;;22.45;15.45;;;;;;;;;;7367941;19;20457;-66
2023/09/28 05:01:07;;;;;;;22.92;14.50;;;;;;;;;;7371082;19;20010;-65
2023/09/28 05:03:33;;;;;;;23.25;15.13;;;;;;;;;;7370154;19;20318;-66
2023/09/28 05:05:59;;;;;;;24.10;15.52;;;;;;;;;;7391801;19;20556;-66
2023/09/28 05:08:25;;;;;;;27.58;17.02;;;;;;;;;;7368536;19;20009;-66
2023/09/28 05:10:51;;;;;;;25.05;16.35;;;;;;;;;;7371114;19;20074;-65
2023/09/28 05:13:16;;;;;;;27.20;16.77;;;;;;;;;;7378319;19;20002;-66
2023/09/28 05:15:41;;;;;;;26.02;17.48;;;;;;;;;;7376935;19;20013;-65
2023/09/28 05:18:06;;;;;;;25.85;16.85;;;;;;;;;;7392787;19;20353;-66
2023/09/28 05:20:32;;;;;;;27.95;16.27;;;;;;;;;;7367685;19;20388;-65
2023/09/28 05:22:57;;;;;;;25.63;16.73;;;;;;;;;;7366666;19;20002;-65
2023/09/28 05:25:23;;;;;;;24.33;16.88;;;;;;;;;;7365841;19;20007;-64
2023/09/28 05:27:48;;;;;;;26.15;15.25;;;;;;;;;;7367303;19;20068;-65
2023/09/28 05:30:14;;;;;;;26.02;17.20;;;;;;;;;;7379442;19;20003;-66
2023/09/28 05:32:40;;;;;;;25.25;15.57;;;;;;;;;;7362272;19;20015;-65
2023/09/28 05:35:06;;;;;;;26.05;16.23;;;;;;;;;;7367025;19;20018;-64
2023/09/28 05:37:31;;;;;;;24.30;16.88;;;;;;;;;;7366429;19;20070;-64
2023/09/28 05:39:57;;;;;;;21.70;14.88;;;;;;;;;;7361909;19;20006;-65
2023/09/28 05:42:23;;;;;;;26.65;17.35;;;;;;;;;;7386858;19;20066;-66
2023/09/28 05:44:48;;;;;;;27.63;17.40;;;;;;;;;;7367684;19;20013;-65
2023/09/28 05:47:14;;;;;;;24.25;16.15;;;;;;;;;;7366067;19;20017;-66
2023/09/28 05:49:39;;;;;;;28.20;16.10;;;;;;;;;;7366085;19;20014;-66
2023/09/28 05:52:05;;;;;;;27.83;15.88;;;;;;;;;;7364469;19;20013;-66
2023/09/28 05:54:30;;;;;;;31.95;15.68;;;;;;;;;;7379190;19;19998;-66
2023/09/28 05:56:55;;;;;;;22.77;15.32;;;;;;;;;;7378751;19;20029;-65
2023/09/28 05:59:21;;;;;;;24.42;15.82;;;;;;;;;;7366581;19;20484;-66
2023/09/28 06:01:46;;;;;;;26.90;16.83;;;;;;;;;;7358473;19;20070;-65
2023/09/28 06:04:12;;;;;;;24.85;16.92;;;;;;;;;;7372420;19;20010;-66
2023/09/28 06:06:37;;;;;;;27.95;16.98;;;;;;;;;;7373546;19;20003;-66
2023/09/28 06:09:03;;;;;;;26.25;16.88;;;;;;;;;;7393519;19;20437;-66
2023/09/28 06:11:28;;;;;;;25.52;16.25;;;;;;;;;;7371757;19;20424;-66
2023/09/28 06:13:54;;;;;;;26.00;16.20;;;;;;;;;;7372297;19;20006;-65
2023/09/28 06:16:19;;;;;;;23.55;15.90;;;;;;;;;;7371978;19;20025;-66
2023/09/28 06:18:44;;;;;;;26.02;16.58;;;;;;;;;;7373104;19;20557;-65
2023/09/28 06:21:10;;;;;;;21.48;15.43;;;;;;;;;;7394361;19;20358;-65
2023/09/28 06:23:35;;;;;;;25.00;16.95;;;;;;;;;;7370733;19;20002;-66
2023/09/28 06:26:01;;;;;;;22.48;16.42;;;;;;;;;;7370414;19;20457;-66
2023/09/28 06:28:27;;;;;;;25.73;17.48;;;;;;;;;;7372689;19;20023;-65
2023/09/28 06:30:53;;;;;;;22.20;16.20;;;;;;;;;;7371608;19;20078;-66
2023/09/28 06:33:20;;;;;;;34.13;23.70;;;;;;;;;;7392196;19;20006;-67
2023/09/28 06:35:46;;;;;;;21.88;15.68;;;;;;;;;;7371376;19;20026;-65
2023/09/28 06:38:11;;;;;;;24.27;15.38;;;;;;;;;;7371957;19;21018;-65
2023/09/28 06:40:38;;;;;;;20.88;14.88;;;;;;;;;;7372214;19;20007;-66
2023/09/28 06:43:04;;;;;;;21.10;15.30;;;;;;;;;;7369974;19;20126;-65
2023/09/28 06:45:29;;;;;;;19.65;13.52;;;;;;;;;;7393061;19;20479;-66
2023/09/28 06:47:55;;;;;;;18.58;13.05;;;;;;;;;;7377037;19;20111;-66
2023/09/28 06:50:21;;;;;;;20.38;14.05;;;;;;;;;;7374263;19;20007;-66
2023/09/28 06:52:47;;;;;;;19.33;12.57;;;;;;;;;;7374189;19;20010;-66
2023/09/28 06:55:13;;;;;;;20.58;13.20;;;;;;;;;;7372521;19;20014;-66
2023/09/28 06:57:38;;;;;;;19.67;13.48;;;;;;;;;;7370843;19;20022;-66
2023/09/28 07:00:08;;;;;;;20.38;13.10;;;;;;;;;;7392967;19;20005;-66
2023/09/28 07:02:34;;;;;;;17.83;11.80;;;;;;;;;;7370098;19;20010;-66
2023/09/28 07:05:00;;;;;;;16.40;11.57;;;;;;;;;;7370572;19;20000;-65
2023/09/28 07:07:29;;;;;;;17.95;11.52;;;;;;;;;;7371765;19;20010;-66
2023/09/28 07:09:55;;;;;;;19.30;12.63;;;;;;;;;;7370779;19;20046;-66
2023/09/28 07:12:21;;;;;;;15.10;11.35;;;;;;;;;;7390068;19;20010;-66
2023/09/28 07:14:47;;;;;;;17.25;12.00;;;;;;;;;;7371359;19;20520;-66
2023/09/28 07:17:12;;;;;;;15.57;11.77;;;;;;;;;;7368371;19;20006;-65
2023/09/28 07:19:37;;;;;;;18.98;11.20;;;;;;;;;;7371144;19;20010;-65
2023/09/28 07:22:03;;;;;;;16.45;10.77;;;;;;;;;;7369142;19;20014;-65
2023/09/28 07:24:33;;;;;;;16.27;10.95;;;;;;;;;;7390923;19;20010;-66
2023/09/28 07:26:58;;;;;;;14.70;10.73;;;;;;;;;;7370732;19;20010;-67
2023/09/28 07:29:24;;;;;;;15.93;11.27;;;;;;;;;;7368967;19;20029;-66
2023/09/28 07:31:49;;;;;;;12.77;9.40;;;;;;;;;;7368834;19;20031;-66
2023/09/28 07:34:14;;;;;;;15.48;9.20;;;;;;;;;;7368140;19;19999;-66
2023/09/28 07:36:40;;;;;;;14.02;8.52;;;;;;;;;;7366561;19;20003;-67
2023/09/28 07:39:05;;;;;;;13.05;8.63;;;;;;;;;;7390247;19;20052;-68
2023/09/28 07:41:30;;;;;;;15.27;9.30;;;;;;;;;;7368623;19;20002;-66
2023/09/28 07:43:56;;;;;;;14.32;9.65;;;;;;;;;;7369713;19;20006;-68
2023/09/28 07:46:21;;;;;;;15.00;9.52;;;;;;;;;;7369161;19;20015;-66
2023/09/28 07:48:47;;;;;;;24.35;16.63;;;;;;;;;;7369831;19;20005;-67
2023/09/28 07:51:13;;;;;;;15.30;10.07;;;;;;;;;;7391138;19;20013;-67
2023/09/28 07:53:39;;;;;;;14.10;9.80;;;;;;;;;;7368019;19;20002;-66
2023/09/28 07:56:04;;;;;;;11.93;8.10;;;;;;;;;;7368872;19;20026;-65
2023/09/28 07:58:29;;;;;;;14.23;8.85;;;;;;;;;;7369409;19;20003;-65
2023/09/28 08:00:55;;;;;;;12.38;8.48;;;;;;;;;;7367070;19;20010;-66
2023/09/28 08:03:20;;;;;;;13.50;8.30;;;;;;;;;;7388388;19;20015;-65
2023/09/28 08:05:46;;;;;;;13.25;8.57;;;;;;;;;;7367731;19;20010;-65
2023/09/28 08:08:11;;;;;;;15.63;9.45;;;;;;;;;;7367854;19;20077;-67
2023/09/28 08:10:37;;;;;;;13.20;8.60;;;;;;;;;;7367560;19;20060;-66
2023/09/28 08:13:02;;;;;;;11.15;7.18;;;;;;;;;;7367391;19;20035;-65
2023/09/28 08:15:28;;;;;;;12.07;8.27;;;;;;;;;;7390595;19;20003;-66
2023/09/28 08:17:54;;;;;;;12.60;9.05;;;;;;;;;;7367797;19;20002;-66
2023/09/28 08:20:20;;;;;;;14.90;9.45;;;;;;;;;;7367255;19;20029;-66
2023/09/28 08:22:46;;;;;;;13.10;9.10;;;;;;;;;;7366041;19;20006;-65
2023/09/28 08:25:13;;;;;;;11.82;9.07;;;;;;;;;;7365433;19;20481;-66
2023/09/28 08:27:39;;;;;;;16.92;9.65;;;;;;;;;;7367147;19;20005;-65
2023/09/28 08:30:05;;;;;;;14.88;9.88;;;;;;;;;;7388644;19;19998;-67
2023/09/28 08:32:31;;;;;;;14.25;8.75;;;;;;;;;;7365268;19;20025;-67
2023/09/28 08:34:56;;;;;;;12.50;8.35;;;;;;;;;;7368108;19;20002;-67
2023/09/28 08:37:23;;;;;;;13.35;10.10;;;;;;;;;;7367374;19;20039;-66
2023/09/28 08:39:49;;;;;;;14.43;9.15;;;;;;;;;;7366092;19;20009;-66
2023/09/28 08:42:16;;;;;;;11.32;8.27;;;;;;;;;;7387491;19;19995;-65
2023/09/28 08:44:41;;;;;;;13.35;8.23;;;;;;;;;;7367183;19;20006;-65
2023/09/28 08:47:18;;;;;;;12.02;8.20;;;;;;;;;;7367274;19;20010;-66
2023/09/28 08:49:49;;;;;;;13.32;8.63;;;;;;;;;;7366470;19;20052;-66
2023/09/28 08:52:17;;;;;;;12.23;8.35;;;;;;;;;;7365600;19;20009;-66
2023/09/28 08:54:42;;;;;;;17.08;8.85;;;;;;;;;;7366851;19;19998;-66
2023/09/28 08:57:08;;;;;;;11.60;7.80;;;;;;;;;;7388334;19;20002;-66
2023/09/28 08:59:36;;;;;;;13.27;7.78;;;;;;;;;;7366939;19;20530;-67
2023/09/28 09:02:03;;;;;;;13.95;8.02;;;;;;;;;;7365056;19;20394;-66
2023/09/28 09:04:34;;;;;;;12.55;8.00;;;;;;;;;;7367145;19;20014;-66
2023/09/28 09:07:02;;;;;;;14.07;7.53;;;;;;;;;;7366484;19;20014;-67
2023/09/28 09:09:29;;;;;;;11.05;7.95;;;;;;;;;;7393640;19;20034;-66
2023/09/28 09:11:57;;;;;;;13.60;7.38;;;;;;;;;;7372887;19;20010;-66
2023/09/28 09:14:28;;;;;;;10.77;7.55;;;;;;;;;;7374709;19;20054;-65
2023/09/28 09:16:53;;;;;;;11.77;6.82;;;;;;;;;;7368129;19;20337;-65
2023/09/28 09:19:18;;;;;;;11.10;6.45;;;;;;;;;;7365945;19;20017;-66
2023/09/28 09:21:44;;;;;;;8.13;5.93;;;;;;;;;;7366424;19;20079;-65
2023/09/28 09:24:18;;;;;;;13.10;7.35;;;;;;;;;;7387146;19;20013;-65
2023/09/28 09:26:45;;;;;;;10.32;7.40;;;;;;;;;;7365765;19;20007;-66
2023/09/28 09:29:12;;;;;;;8.80;6.65;;;;;;;;;;7365652;19;20002;-64
2023/09/28 09:31:42;;;;;;;10.75;6.72;;;;;;;;;;7365200;19;19998;-66
2023/09/28 09:34:11;;;;;;;9.07;6.20;;;;;;;;;;7365627;19;20070;-68
2023/09/28 09:36:37;;;;;;;10.07;5.97;;;;;;;;;;7373033;19;19994;-67
2023/09/28 09:39:03;;;;;;;8.13;5.63;;;;;;;;;;7394864;19;20109;-67
2023/09/28 09:41:29;;;;;;;7.05;5.10;;;;;;;;;;7372876;19;20013;-67
2023/09/28 09:43:54;;;;;;;8.05;5.63;;;;;;;;;;7373144;19;20166;-65
2023/09/28 09:46:20;;;;;;;8.25;5.50;;;;;;;;;;7373523;19;20036;-66
2023/09/28 09:48:46;;;;;;;7.43;5.10;;;;;;;;;;7371351;19;20003;-66
2023/09/28 09:51:16;;;;;;;10.02;5.55;;;;;;;;;;7397345;19;20015;-66
2023/09/28 09:53:43;;;;;;;11.57;4.95;;;;;;;;;;7370993;19;20012;-65
2023/09/28 09:56:10;;;;;;;12.02;4.35;;;;;;;;;;7372943;19;20522;-66
2023/09/28 09:58:48;;;;;;;7.15;4.32;;;;;;;;;;7373695;19;20014;-66
2023/09/28 10:01:17;;;;;;;7.65;4.20;;;;;;;;;;7372261;19;20027;-66
2023/09/28 10:03:48;;;;;;;8.48;4.53;;;;;;;;;;7370234;19;20414;-66
2023/09/28 10:06:16;;;;;;;7.93;4.03;;;;;;;;;;7394108;19;20363;-66
2023/09/28 10:08:42;;;;;;;11.80;4.80;;;;;;;;;;7371916;19;20007;-66
2023/09/28 10:11:10;;;;;;;7.40;4.65;;;;;;;;;;7371860;19;20017;-66
2023/09/28 10:13:36;;;;;;;6.05;3.70;;;;;;;;;;7369191;19;20006;-66
2023/09/28 10:16:03;;;;;;;8.10;3.70;;;;;;;;;;7370043;19;20043;-67
2023/09/28 10:18:30;;;;;;;8.27;4.13;;;;;;;;;;7394163;19;20014;-66
2023/09/28 10:20:58;;;;;;;8.93;4.10;;;;;;;;;;7372806;19;20010;-66
2023/09/28 10:23:25;;;;;;;6.55;3.47;;;;;;;;;;7370820;19;20375;-66
2023/09/28 10:25:56;;;;;;;8.20;3.67;;;;;;;;;;7370709;19;20346;-67
2023/09/28 10:28:21;;;;;;;8.10;4.75;;;;;;;;;;7370183;19;20107;-66
2023/09/28 10:30:46;;;;;;;7.10;3.72;;;;;;;;;;7372809;19;20433;-66
2023/09/28 10:33:12;;;;;;;6.60;3.60;;;;;;;;;;7389753;19;20017;-65
2023/09/28 10:35:39;;;;;;;5.78;3.78;;;;;;;;;;7370021;19;20014;-65
2023/09/28 10:38:17;;;;;;;6.75;3.95;;;;;;;;;;7371184;19;20010;-66
2023/09/28 10:41:00;;;;;;;7.15;3.25;;;;;;;;;;7370857;19;20010;-66
2023/09/28 10:43:30;;;;;;;8.77;3.90;;;;;;;;;;7372026;19;20413;-67
2023/09/28 10:45:57;;;;;;;7.15;4.20;;;;;;;;;;7371330;19;20417;-65
2023/09/28 10:48:23;;;;;;;6.70;3.78;;;;;;;;;;7392760;19;20006;-65
2023/09/28 10:50:51;;;;;;;6.70;3.70;;;;;;;;;;7367929;19;20010;-66
2023/09/28 10:53:18;;;;;;;7.47;4.32;;;;;;;;;;7368815;19;20014;-66
2023/09/28 10:55:43;;;;;;;9.43;3.72;;;;;;;;;;7371391;19;20446;-67
2023/09/28 10:58:08;;;;;;;6.45;3.63;;;;;;;;;;7371172;19;20018;-66
2023/09/28 11:00:34;;;;;;;6.55;3.97;;;;;;;;;;7371225;19;20382;-67
2023/09/28 11:03:00;;;;;;;6.72;3.97;;;;;;;;;;7389588;19;20002;-66
2023/09/28 11:05:26;;;;;;;6.15;4.05;;;;;;;;;;7370989;19;20011;-67
2023/09/28 11:07:51;;;;;;;5.78;3.45;;;;;;;;;;7369092;19;20018;-66
2023/09/28 11:10:17;;;;;;;6.97;3.53;;;;;;;;;;7370183;19;20010;-67
2023/09/28 11:12:43;;;;;;;8.65;4.00;;;;;;;;;;7368463;19;20683;-66
2023/09/28 11:15:09;;;;;;;5.93;3.50;;;;;;;;;;7392282;19;20002;-67
2023/09/28 11:17:37;;;;;;;6.05;3.90;;;;;;;;;;7369402;19;20516;-67
2023/09/28 11:20:03;;;;;;;6.00;3.50;;;;;;;;;;7370385;19;20540;-66
2023/09/28 11:22:30;;;;;;;7.53;3.78;;;;;;;;;;7369263;19;20077;-66
2023/09/28 11:24:56;;;;;;;6.97;4.38;;;;;;;;;;7367493;19;20017;-66
2023/09/28 11:27:22;;;;;;;4.97;3.10;;;;;;;;;;7390442;19;20353;-67
2023/09/28 11:29:56;;;;;;;5.97;3.20;;;;;;;;;;7370447;19;20035;-67
2023/09/28 11:32:21;;;;;;;6.05;2.97;;;;;;;;;;7365854;19;20013;-65
2023/09/28 11:34:46;;;;;;;5.32;2.90;;;;;;;;;;7368628;19;20045;-66
2023/09/28 11:37:14;;;;;;;4.93;2.90;;;;;;;;;;7366085;19;20011;-66
2023/09/28 11:39:40;;;;;;;7.18;3.05;;;;;;;;;;7367839;19;20477;-67
2023/09/28 11:42:07;;;;;;;4.68;3.05;;;;;;;;;;7389788;19;20090;-66
2023/09/28 11:44:32;;;;;;;7.13;3.30;;;;;;;;;;7368622;19;20039;-66
2023/09/28 11:46:58;;;;;;;8.65;4.50;;;;;;;;;;7367373;19;20010;-66
2023/09/28 11:49:24;;;;;;;4.68;2.75;;;;;;;;;;7368801;19;20081;-65
2023/09/28 11:51:53;;;;;;;5.30;2.72;;;;;;;;;;7365997;19;20012;-65
2023/09/28 11:54:20;;;;;;;4.72;2.60;;;;;;;;;;7388580;19;20003;-66
2023/09/28 11:56:45;;;;;;;5.05;2.72;;;;;;;;;;7366797;19;20070;-66
2023/09/28 11:59:15;;;;;;;4.45;2.85;;;;;;;;;;7364363;19;20066;-66
2023/09/28 12:01:51;;;;;;;4.28;2.58;;;;;;;;;;7365799;19;20015;-66
2023/09/28 12:04:16;;;;;;;4.53;2.92;;;;;;;;;;7367300;19;20056;-66
2023/09/28 12:06:43;;;;;;;4.00;2.60;;;;;;;;;;7368535;19;20010;-66
2023/09/28 12:09:08;;;;;;;6.65;2.85;;;;;;;;;;7390512;19;20013;-66
2023/09/28 12:11:37;;;;;;;4.78;3.10;;;;;;;;;;7366516;19;20464;-64
2023/09/28 12:14:03;;;;;;;7.38;3.13;;;;;;;;;;7364178;19;20099;-65
2023/09/28 12:16:28;;;;;;;6.88;3.35;;;;;;;;;;7367598;19;20034;-66
2023/09/28 12:18:54;;;;;;;6.35;2.90;;;;;;;;;;7367826;19;20006;-66
2023/09/28 12:21:19;;;;;;;6.22;3.00;;;;;;;;;;7388214;19;20081;-66
2023/09/28 12:23:44;;;;;;;7.72;3.20;;;;;;;;;;7366143;19;20014;-66
2023/09/28 12:26:10;;;;;;;6.83;3.43;;;;;;;;;;7367709;19;20014;-66
2023/09/28 12:28:37;;;;;;;5.20;3.00;;;;;;;;;;7368243;19;20245;-65
2023/09/28 12:31:03;;;;;;;5.63;2.95;;;;;;;;;;7367828;19;20710;-66
2023/09/28 12:33:29;;;;;;;5.47;3.10;;;;;;;;;;7385469;19;20051;-66
2023/09/28 12:35:56;;;;;;;6.15;3.20;;;;;;;;;;7367358;19;20363;-66
2023/09/28 12:38:21;;;;;;;6.55;2.95;;;;;;;;;;7365556;19;20469;-66
2023/09/28 12:40:48;;;;;;;6.60;3.30;;;;;;;;;;7367002;19;20020;-65
2023/09/28 12:43:13;;;;;;;5.82;3.50;;;;;;;;;;7365628;19;21044;-66
2023/09/28 12:45:38;;;;;;;5.57;3.42;;;;;;;;;;7367286;19;20003;-66
2023/09/28 12:48:05;;;;;;;6.85;3.30;;;;;;;;;;7388451;19;19998;-65
2023/09/28 12:50:32;;;;;;;5.80;3.25;;;;;;;;;;7366644;19;20006;-67
2023/09/28 12:52:58;;;;;;;5.80;3.10;;;;;;;;;;7366960;19;20022;-66
2023/09/28 12:55:25;;;;;;;6.53;3.20;;;;;;;;;;7366712;19;20015;-67
2023/09/28 12:57:51;;;;;;;6.40;3.33;;;;;;;;;;7366884;19;20011;-67
2023/09/28 13:00:17;;;;;;;8.73;3.20;;;;;;;;;;7388030;19;20501;-67
2023/09/28 13:02:44;;;;;;;5.75;3.40;;;;;;;;;;7364534;19;19998;-67
2023/09/28 13:05:09;;;;;;;8.02;3.90;;;;;;;;;;7367066;19;20615;-67
2023/09/28 13:07:35;;;;;;;5.65;3.20;;;;;;;;;;7367520;19;20027;-67
2023/09/28 13:10:03;;;;;;;6.45;3.38;;;;;;;;;;7364784;19;20025;-66
2023/09/28 13:12:29;;;;;;;8.38;3.60;;;;;;;;;;7387717;19;20006;-67
2023/09/28 13:14:55;;;;;;;6.80;3.40;;;;;;;;;;7388474;19;20044;-66
2023/09/28 13:17:20;;;;;;;5.20;3.30;;;;;;;;;;7393290;19;20035;-67
2023/09/28 13:19:46;;;;;;;6.63;3.60;;;;;;;;;;7382214;19;20006;-67
2023/09/28 13:22:12;;;;;;;6.60;3.38;;;;;;;;;;7368530;19;20014;-67
2023/09/28 13:24:38;;;;;;;5.97;3.33;;;;;;;;;;7366562;19;20464;-66
2023/09/28 13:27:05;;;;;;;7.28;3.40;;;;;;;;;;7388681;19;20003;-66
2023/09/28 13:29:31;;;;;;;7.53;3.30;;;;;;;;;;7366994;19;20425;-67
2023/09/28 13:31:57;;;;;;;7.38;3.83;;;;;;;;;;7364434;19;20025;-66
2023/09/28 13:34:22;;;;;;;6.15;2.72;;;;;;;;;;7365904;19;20006;-67
2023/09/28 13:36:48;;;;;;;5.85;3.15;;;;;;;;;;7366755;19;20014;-66
2023/09/28 13:39:30;;;;;;;9.32;3.60;;;;;;;;;;7387471;19;20469;-67
2023/09/28 13:41:58;;;;;;;8.57;3.90;;;;;;;;;;7365383;19;20022;-66
2023/09/28 13:44:24;;;;;;;5.85;3.35;;;;;;;;;;7365459;19;20002;-66
2023/09/28 13:46:53;;;;;;;11.23;3.58;;;;;;;;;;7366211;19;20034;-66
2023/09/28 13:49:21;;;;;;;6.87;3.53;;;;;;;;;;7366524;19;20040;-67
2023/09/28 13:51:47;;;;;;;8.13;3.10;;;;;;;;;;7365862;19;20011;-66
2023/09/28 13:54:14;;;;;;;7.47;4.53;;;;;;;;;;7388042;19;20002;-66
2023/09/28 13:56:39;;;;;;;4.78;2.88;;;;;;;;;;7366386;19;20014;-66
2023/09/28 13:59:09;;;;;;;4.95;3.20;;;;;;;;;;7367270;19;20365;-66
2023/09/28 14:01:36;;;;;;;10.20;3.50;;;;;;;;;;7366013;19;20023;-67
2023/09/28 14:04:01;;;;;;;5.88;3.38;;;;;;;;;;7366327;19;20054;-66
2023/09/28 14:06:28;;;;;;;6.30;3.40;;;;;;;;;;7387102;19;20002;-67
2023/09/28 14:08:56;;;;;;;8.13;3.10;;;;;;;;;;7365877;19;20010;-65
2023/09/28 14:11:22;;;;;;;8.63;3.20;;;;;;;;;;7365222;19;20023;-65
2023/09/28 14:13:48;;;;;;;5.20;2.85;;;;;;;;;;7365811;19;20014;-65
2023/09/28 14:16:13;;;;;;;5.55;3.00;;;;;;;;;;7366062;19;20598;-66
2023/09/28 14:18:40;;;;;;;4.95;3.20;;;;;;;;;;7365993;19;20037;-67
2023/09/28 14:21:05;;;;;;;11.23;3.97;;;;;;;;;;7387298;19;20013;-66